sensor_id;sensor_type;location;lat;lon;timestamp;P1;durP1;ratioP1;P2;durP2;ratioP2
75839;SDS011;64481;55.090;37.460;2022-11-15T00:00:27;1.48;;;0.32;;
75839;SDS011;64481;55.090;37.460;2022-11-15T00:05:28;1.02;;;0.25;;
75839;SDS011;64481;55.090;37.460;2022-11-15T00:10:29;1.42;;;0.38;;
75839;SDS011;64481;55.090;37.460;2022-11-15T00:15:31;1.48;;;0.30;;
75839;SDS011;64481;55.090;37.460;2022-11-15T00:20:35;0.93;;;0.20;;
75839;SDS011;64481;55.090;37.460;2022-11-15T00:25:36;1.83;;;0.28;;
75839;SDS011;64481;55.090;37.460;2022-11-15T00:30:37;1.23;;;0.30;;
75839;SDS011;64481;55.090;37.460;2022-11-15T00:35:38;1.10;;;0.20;;
75839;SDS011;64481;55.090;37.460;2022-11-15T00:40:40;1.85;;;0.65;;
75839;SDS011;64481;55.090;37.460;2022-11-15T00:45:41;1.52;;;0.30;;
75839;SDS011;64481;55.090;37.460;2022-11-15T00:50:42;1.08;;;0.30;;
75839;SDS011;64481;55.090;37.460;2022-11-15T00:55:43;2.30;;;0.22;;
75839;SDS011;64481;55.090;37.460;2022-11-15T01:00:44;0.73;;;0.13;;
75839;SDS011;64481;55.090;37.460;2022-11-15T01:05:45;1.30;;;0.30;;
75839;SDS011;64481;55.090;37.460;2022-11-15T01:10:46;1.15;;;0.30;;
75839;SDS011;64481;55.090;37.460;2022-11-15T01:15:47;1.10;;;0.20;;
75839;SDS011;64481;55.090;37.460;2022-11-15T01:20:48;1.15;;;0.17;;
75839;SDS011;64481;55.090;37.460;2022-11-15T01:25:49;2.08;;;0.52;;
75839;SDS011;64481;55.090;37.460;2022-11-15T01:30:50;1.35;;;0.30;;
75839;SDS011;64481;55.090;37.460;2022-11-15T01:35:51;1.10;;;0.20;;
75839;SDS011;64481;55.090;37.460;2022-11-15T01:40:52;2.47;;;0.35;;
75839;SDS011;64481;55.090;37.460;2022-11-15T01:45:59;1.20;;;0.30;;
75839;SDS011;64481;55.090;37.460;2022-11-15T01:51:22;2.05;;;0.28;;
75839;SDS011;64481;55.090;37.460;2022-11-15T01:56:25;1.25;;;0.35;;
75839;SDS011;64481;55.090;37.460;2022-11-15T02:01:30;1.20;;;0.40;;
75839;SDS011;64481;55.090;37.460;2022-11-15T02:06:32;2.15;;;0.20;;
75839;SDS011;64481;55.090;37.460;2022-11-15T02:11:33;1.25;;;0.30;;
75839;SDS011;64481;55.090;37.460;2022-11-15T02:33:23;3.30;;;0.32;;
75839;SDS011;64481;55.090;37.460;2022-11-15T02:43:47;1.33;;;0.30;;
75839;SDS011;64481;55.090;37.460;2022-11-15T02:48:59;1.23;;;0.30;;
75839;SDS011;64481;55.090;37.460;2022-11-15T02:54:00;1.77;;;0.30;;
75839;SDS011;64481;55.090;37.460;2022-11-15T03:04:39;1.02;;;0.20;;
75839;SDS011;64481;55.090;37.460;2022-11-15T03:09:55;2.05;;;0.40;;
75839;SDS011;64481;55.090;37.460;2022-11-15T03:20:08;1.30;;;0.30;;
75839;SDS011;64481;55.090;37.460;2022-11-15T03:25:13;1.33;;;0.20;;
75839;SDS011;64481;55.090;37.460;2022-11-15T03:30:20;1.40;;;0.30;;
75839;SDS011;64481;55.090;37.460;2022-11-15T03:35:23;1.23;;;0.40;;
75839;SDS011;64481;55.090;37.460;2022-11-15T03:40:28;2.25;;;0.40;;
75839;SDS011;64481;55.090;37.460;2022-11-15T03:45:32;2.38;;;0.30;;
75839;SDS011;64481;55.090;37.460;2022-11-15T03:50:36;1.58;;;0.45;;
75839;SDS011;64481;55.090;37.460;2022-11-15T03:55:37;2.15;;;0.40;;
75839;SDS011;64481;55.090;37.460;2022-11-15T04:00:38;1.63;;;0.43;;
75839;SDS011;64481;55.090;37.460;2022-11-15T04:05:39;1.50;;;0.20;;
75839;SDS011;64481;55.090;37.460;2022-11-15T04:10:40;2.33;;;0.30;;
75839;SDS011;64481;55.090;37.460;2022-11-15T04:15:42;1.10;;;0.50;;
75839;SDS011;64481;55.090;37.460;2022-11-15T04:20:43;1.52;;;0.40;;
75839;SDS011;64481;55.090;37.460;2022-11-15T04:26:11;1.10;;;0.30;;
75839;SDS011;64481;55.090;37.460;2022-11-15T04:31:13;1.65;;;0.45;;
75839;SDS011;64481;55.090;37.460;2022-11-15T04:36:14;2.20;;;0.40;;
75839;SDS011;64481;55.090;37.460;2022-11-15T04:41:34;1.60;;;0.40;;
75839;SDS011;64481;55.090;37.460;2022-11-15T04:46:35;2.03;;;0.30;;
75839;SDS011;64481;55.090;37.460;2022-11-15T04:51:36;1.05;;;0.30;;
75839;SDS011;64481;55.090;37.460;2022-11-15T04:56:37;1.77;;;0.30;;
75839;SDS011;64481;55.090;37.460;2022-11-15T05:01:38;2.05;;;0.38;;
75839;SDS011;64481;55.090;37.460;2022-11-15T05:06:39;2.60;;;0.63;;
75839;SDS011;64481;55.090;37.460;2022-11-15T05:11:40;0.90;;;0.40;;
75839;SDS011;64481;55.090;37.460;2022-11-15T05:16:42;1.45;;;0.40;;
75839;SDS011;64481;55.090;37.460;2022-11-15T05:21:43;2.10;;;0.40;;
75839;SDS011;64481;55.090;37.460;2022-11-15T05:26:44;1.13;;;0.30;;
75839;SDS011;64481;55.090;37.460;2022-11-15T05:31:45;1.00;;;0.30;;
75839;SDS011;64481;55.090;37.460;2022-11-15T05:36:46;1.90;;;0.38;;
75839;SDS011;64481;55.090;37.460;2022-11-15T05:41:48;0.80;;;0.20;;
75839;SDS011;64481;55.090;37.460;2022-11-15T05:46:55;2.88;;;0.40;;
75839;SDS011;64481;55.090;37.460;2022-11-15T05:51:57;1.13;;;0.30;;
75839;SDS011;64481;55.090;37.460;2022-11-15T05:56:58;2.17;;;0.30;;
75839;SDS011;64481;55.090;37.460;2022-11-15T06:02:00;1.60;;;0.30;;
75839;SDS011;64481;55.090;37.460;2022-11-15T06:07:01;1.92;;;0.40;;
75839;SDS011;64481;55.090;37.460;2022-11-15T06:12:02;1.75;;;0.50;;
75839;SDS011;64481;55.090;37.460;2022-11-15T06:17:03;3.17;;;0.50;;
75839;SDS011;64481;55.090;37.460;2022-11-15T06:22:05;2.03;;;0.40;;
75839;SDS011;64481;55.090;37.460;2022-11-15T06:27:06;1.30;;;0.30;;
75839;SDS011;64481;55.090;37.460;2022-11-15T06:32:07;2.60;;;0.50;;
75839;SDS011;64481;55.090;37.460;2022-11-15T06:37:08;1.92;;;0.40;;
75839;SDS011;64481;55.090;37.460;2022-11-15T06:42:09;2.40;;;0.30;;
75839;SDS011;64481;55.090;37.460;2022-11-15T06:47:10;2.60;;;0.50;;
75839;SDS011;64481;55.090;37.460;2022-11-15T06:52:11;2.35;;;0.60;;
75839;SDS011;64481;55.090;37.460;2022-11-15T06:57:12;1.70;;;0.40;;
75839;SDS011;64481;55.090;37.460;2022-11-15T07:02:13;2.33;;;0.20;;
75839;SDS011;64481;55.090;37.460;2022-11-15T07:07:14;1.50;;;0.40;;
75839;SDS011;64481;55.090;37.460;2022-11-15T07:12:15;2.40;;;0.50;;
75839;SDS011;64481;55.090;37.460;2022-11-15T07:17:19;1.58;;;0.50;;
75839;SDS011;64481;55.090;37.460;2022-11-15T07:22:20;2.20;;;0.60;;
75839;SDS011;64481;55.090;37.460;2022-11-15T07:27:21;2.38;;;0.50;;
75839;SDS011;64481;55.090;37.460;2022-11-15T07:32:22;1.98;;;0.50;;
75839;SDS011;64481;55.090;37.460;2022-11-15T07:37:24;1.65;;;0.50;;
75839;SDS011;64481;55.090;37.460;2022-11-15T07:42:25;2.35;;;0.68;;
75839;SDS011;64481;55.090;37.460;2022-11-15T07:47:48;2.47;;;0.35;;
75839;SDS011;64481;55.090;37.460;2022-11-15T07:52:56;1.52;;;0.38;;
75839;SDS011;64481;55.090;37.460;2022-11-15T07:58:02;1.55;;;0.50;;
75839;SDS011;64481;55.090;37.460;2022-11-15T08:03:08;2.75;;;0.30;;
75839;SDS011;64481;55.090;37.460;2022-11-15T08:08:11;2.25;;;0.28;;
75839;SDS011;64481;55.090;37.460;2022-11-15T08:13:12;3.70;;;0.50;;
75839;SDS011;64481;55.090;37.460;2022-11-15T08:18:14;1.75;;;0.35;;
75839;SDS011;64481;55.090;37.460;2022-11-15T08:23:16;2.83;;;0.43;;
75839;SDS011;64481;55.090;37.460;2022-11-15T08:28:17;1.65;;;0.30;;
75839;SDS011;64481;55.090;37.460;2022-11-15T08:33:18;3.15;;;0.63;;
75839;SDS011;64481;55.090;37.460;2022-11-15T08:38:19;1.75;;;0.50;;
75839;SDS011;64481;55.090;37.460;2022-11-15T08:43:20;1.77;;;0.43;;
75839;SDS011;64481;55.090;37.460;2022-11-15T08:48:21;3.53;;;0.60;;
75839;SDS011;64481;55.090;37.460;2022-11-15T08:53:23;2.13;;;0.60;;
75839;SDS011;64481;55.090;37.460;2022-11-15T08:58:24;2.22;;;0.40;;
75839;SDS011;64481;55.090;37.460;2022-11-15T09:03:25;3.47;;;0.50;;
75839;SDS011;64481;55.090;37.460;2022-11-15T09:08:29;1.80;;;0.50;;
75839;SDS011;64481;55.090;37.460;2022-11-15T09:13:30;1.77;;;0.50;;
75839;SDS011;64481;55.090;37.460;2022-11-15T09:18:31;2.25;;;0.57;;
75839;SDS011;64481;55.090;37.460;2022-11-15T09:23:33;1.60;;;0.70;;
75839;SDS011;64481;55.090;37.460;2022-11-15T09:28:34;2.83;;;0.65;;
75839;SDS011;64481;55.090;37.460;2022-11-15T09:33:36;1.48;;;0.50;;
75839;SDS011;64481;55.090;37.460;2022-11-15T09:38:38;2.70;;;0.60;;
75839;SDS011;64481;55.090;37.460;2022-11-15T09:54:11;2.78;;;0.60;;
75839;SDS011;64481;55.090;37.460;2022-11-15T09:59:36;3.65;;;0.50;;
75839;SDS011;64481;55.090;37.460;2022-11-15T10:04:50;2.05;;;0.50;;
75839;SDS011;64481;55.090;37.460;2022-11-15T10:15:05;3.60;;;1.08;;
75839;SDS011;64481;55.090;37.460;2022-11-15T10:25:25;2.25;;;0.60;;
75839;SDS011;64481;55.090;37.460;2022-11-15T10:30:35;2.90;;;0.60;;
75839;SDS011;64481;55.090;37.460;2022-11-15T10:35:37;3.30;;;0.80;;
75839;SDS011;64481;55.090;37.460;2022-11-15T10:40:39;3.05;;;0.50;;
75839;SDS011;64481;55.090;37.460;2022-11-15T10:45:41;2.83;;;0.50;;
75839;SDS011;64481;55.090;37.460;2022-11-15T10:50:44;3.03;;;0.52;;
75839;SDS011;64481;55.090;37.460;2022-11-15T10:55:49;2.05;;;0.50;;
75839;SDS011;64481;55.090;37.460;2022-11-15T11:06:03;4.15;;;0.90;;
75839;SDS011;64481;55.090;37.460;2022-11-15T11:11:12;3.28;;;0.68;;
75839;SDS011;64481;55.090;37.460;2022-11-15T11:21:14;1.75;;;0.63;;
75839;SDS011;64481;55.090;37.460;2022-11-15T11:26:40;2.05;;;0.68;;
75839;SDS011;64481;55.090;37.460;2022-11-15T11:43:02;2.88;;;0.63;;
75839;SDS011;64481;55.090;37.460;2022-11-15T11:53:21;2.63;;;0.63;;
75839;SDS011;64481;55.090;37.460;2022-11-15T12:14:04;1.80;;;0.60;;
75839;SDS011;64481;55.090;37.460;2022-11-15T12:19:13;2.92;;;0.95;;
75839;SDS011;64481;55.090;37.460;2022-11-15T12:24:16;3.05;;;0.70;;
75839;SDS011;64481;55.090;37.460;2022-11-15T12:29:26;2.40;;;0.70;;
75839;SDS011;64481;55.090;37.460;2022-11-15T12:34:36;2.45;;;0.85;;
75839;SDS011;64481;55.090;37.460;2022-11-15T12:45:36;2.72;;;0.70;;
75839;SDS011;64481;55.090;37.460;2022-11-15T13:01:09;4.25;;;0.70;;
75839;SDS011;64481;55.090;37.460;2022-11-15T13:11:42;3.92;;;1.00;;
75839;SDS011;64481;55.090;37.460;2022-11-15T13:16:48;3.85;;;0.73;;
75839;SDS011;64481;55.090;37.460;2022-11-15T13:21:49;2.70;;;1.00;;
75839;SDS011;64481;55.090;37.460;2022-11-15T13:27:10;3.13;;;0.80;;
75839;SDS011;64481;55.090;37.460;2022-11-15T13:32:16;3.17;;;1.05;;
75839;SDS011;64481;55.090;37.460;2022-11-15T13:42:21;3.13;;;0.90;;
75839;SDS011;64481;55.090;37.460;2022-11-15T13:47:24;2.33;;;0.80;;
75839;SDS011;64481;55.090;37.460;2022-11-15T13:52:33;2.80;;;1.60;;
75839;SDS011;64481;55.090;37.460;2022-11-15T13:57:42;2.60;;;0.95;;
75839;SDS011;64481;55.090;37.460;2022-11-15T14:02:52;4.32;;;1.23;;
75839;SDS011;64481;55.090;37.460;2022-11-15T14:30:18;4.60;;;1.20;;
75839;SDS011;64481;55.090;37.460;2022-11-15T14:35:20;4.50;;;1.23;;
75839;SDS011;64481;55.090;37.460;2022-11-15T14:40:22;3.35;;;1.15;;
75839;SDS011;64481;55.090;37.460;2022-11-15T14:45:26;4.43;;;0.85;;
75839;SDS011;64481;55.090;37.460;2022-11-15T14:50:27;3.35;;;1.20;;
75839;SDS011;64481;55.090;37.460;2022-11-15T14:55:33;3.30;;;1.08;;
75839;SDS011;64481;55.090;37.460;2022-11-15T15:00:37;3.00;;;1.30;;
75839;SDS011;64481;55.090;37.460;2022-11-15T15:05:40;2.38;;;1.02;;
75839;SDS011;64481;55.090;37.460;2022-11-15T15:10:43;3.03;;;1.02;;
75839;SDS011;64481;55.090;37.460;2022-11-15T15:15:45;4.82;;;1.13;;
75839;SDS011;64481;55.090;37.460;2022-11-15T15:20:54;3.10;;;1.10;;
75839;SDS011;64481;55.090;37.460;2022-11-15T15:25:57;2.00;;;0.82;;
75839;SDS011;64481;55.090;37.460;2022-11-15T15:30:59;4.00;;;1.13;;
75839;SDS011;64481;55.090;37.460;2022-11-15T15:36:00;3.13;;;1.00;;
75839;SDS011;64481;55.090;37.460;2022-11-15T15:41:01;3.35;;;1.20;;
75839;SDS011;64481;55.090;37.460;2022-11-15T15:46:03;2.58;;;0.82;;
75839;SDS011;64481;55.090;37.460;2022-11-15T15:51:05;4.13;;;1.30;;
75839;SDS011;64481;55.090;37.460;2022-11-15T15:56:06;3.78;;;1.33;;
75839;SDS011;64481;55.090;37.460;2022-11-15T16:01:08;2.55;;;1.20;;
75839;SDS011;64481;55.090;37.460;2022-11-15T16:11:37;2.28;;;0.90;;
75839;SDS011;64481;55.090;37.460;2022-11-15T16:16:42;5.80;;;0.80;;
75839;SDS011;64481;55.090;37.460;2022-11-15T16:21:43;4.45;;;1.15;;
75839;SDS011;64481;55.090;37.460;2022-11-15T16:26:44;2.35;;;0.98;;
75839;SDS011;64481;55.090;37.460;2022-11-15T16:31:45;2.65;;;1.13;;
75839;SDS011;64481;55.090;37.460;2022-11-15T16:36:46;2.72;;;0.98;;
75839;SDS011;64481;55.090;37.460;2022-11-15T16:41:47;3.03;;;1.05;;
75839;SDS011;64481;55.090;37.460;2022-11-15T16:46:48;2.33;;;1.05;;
75839;SDS011;64481;55.090;37.460;2022-11-15T16:51:51;2.50;;;1.13;;
75839;SDS011;64481;55.090;37.460;2022-11-15T16:56:52;2.63;;;0.93;;
75839;SDS011;64481;55.090;37.460;2022-11-15T17:01:53;2.33;;;0.82;;
75839;SDS011;64481;55.090;37.460;2022-11-15T17:06:54;3.13;;;0.77;;
75839;SDS011;64481;55.090;37.460;2022-11-15T17:11:55;3.42;;;1.00;;
75839;SDS011;64481;55.090;37.460;2022-11-15T17:16:56;4.13;;;1.13;;
75839;SDS011;64481;55.090;37.460;2022-11-15T17:22:00;2.90;;;1.02;;
75839;SDS011;64481;55.090;37.460;2022-11-15T17:27:01;3.35;;;1.20;;
75839;SDS011;64481;55.090;37.460;2022-11-15T17:32:02;3.13;;;1.02;;
75839;SDS011;64481;55.090;37.460;2022-11-15T17:37:03;2.80;;;0.88;;
75839;SDS011;64481;55.090;37.460;2022-11-15T17:42:04;2.95;;;1.10;;
75839;SDS011;64481;55.090;37.460;2022-11-15T17:47:05;3.90;;;1.33;;
75839;SDS011;64481;55.090;37.460;2022-11-15T17:52:08;3.05;;;1.20;;
75839;SDS011;64481;55.090;37.460;2022-11-15T17:57:09;4.15;;;1.35;;
75839;SDS011;64481;55.090;37.460;2022-11-15T18:02:10;4.13;;;0.98;;
75839;SDS011;64481;55.090;37.460;2022-11-15T18:07:11;3.83;;;1.20;;
75839;SDS011;64481;55.090;37.460;2022-11-15T18:12:13;3.63;;;1.10;;
75839;SDS011;64481;55.090;37.460;2022-11-15T18:17:14;3.70;;;1.10;;
75839;SDS011;64481;55.090;37.460;2022-11-15T18:22:17;3.05;;;1.48;;
75839;SDS011;64481;55.090;37.460;2022-11-15T18:27:20;3.60;;;1.20;;
75839;SDS011;64481;55.090;37.460;2022-11-15T18:32:21;4.10;;;1.20;;
75839;SDS011;64481;55.090;37.460;2022-11-15T18:37:22;3.80;;;1.17;;
75839;SDS011;64481;55.090;37.460;2022-11-15T18:42:23;4.70;;;1.70;;
75839;SDS011;64481;55.090;37.460;2022-11-15T18:47:24;4.63;;;1.42;;
75839;SDS011;64481;55.090;37.460;2022-11-15T18:52:25;6.55;;;1.30;;
75839;SDS011;64481;55.090;37.460;2022-11-15T18:57:26;4.10;;;1.45;;
75839;SDS011;64481;55.090;37.460;2022-11-15T19:02:27;3.70;;;1.40;;
75839;SDS011;64481;55.090;37.460;2022-11-15T19:07:28;5.10;;;1.30;;
75839;SDS011;64481;55.090;37.460;2022-11-15T19:12:29;4.53;;;1.55;;
75839;SDS011;64481;55.090;37.460;2022-11-15T19:17:33;7.32;;;1.55;;
75839;SDS011;64481;55.090;37.460;2022-11-15T19:22:34;5.57;;;1.98;;
75839;SDS011;64481;55.090;37.460;2022-11-15T19:27:35;4.60;;;2.65;;
75839;SDS011;64481;55.090;37.460;2022-11-15T19:32:36;4.40;;;2.85;;
75839;SDS011;64481;55.090;37.460;2022-11-15T19:37:37;5.68;;;2.10;;
75839;SDS011;64481;55.090;37.460;2022-11-15T19:42:38;5.07;;;2.05;;
75839;SDS011;64481;55.090;37.460;2022-11-15T19:47:40;3.03;;;2.05;;
75839;SDS011;64481;55.090;37.460;2022-11-15T19:52:41;5.15;;;1.98;;
75839;SDS011;64481;55.090;37.460;2022-11-15T19:57:42;4.47;;;1.60;;
75839;SDS011;64481;55.090;37.460;2022-11-15T20:02:43;4.43;;;2.00;;
75839;SDS011;64481;55.090;37.460;2022-11-15T20:07:46;4.57;;;1.85;;
75839;SDS011;64481;55.090;37.460;2022-11-15T20:12:48;3.38;;;1.60;;
75839;SDS011;64481;55.090;37.460;2022-11-15T20:17:49;3.10;;;1.50;;
75839;SDS011;64481;55.090;37.460;2022-11-15T20:22:50;6.07;;;1.80;;
75839;SDS011;64481;55.090;37.460;2022-11-15T20:27:52;4.38;;;1.40;;
75839;SDS011;64481;55.090;37.460;2022-11-15T20:32:53;3.40;;;1.45;;
75839;SDS011;64481;55.090;37.460;2022-11-15T20:37:54;3.92;;;1.80;;
75839;SDS011;64481;55.090;37.460;2022-11-15T20:42:55;3.75;;;1.30;;
75839;SDS011;64481;55.090;37.460;2022-11-15T20:47:57;3.83;;;1.77;;
75839;SDS011;64481;55.090;37.460;2022-11-15T20:52:58;3.83;;;1.70;;
75839;SDS011;64481;55.090;37.460;2022-11-15T20:57:59;3.50;;;1.40;;
75839;SDS011;64481;55.090;37.460;2022-11-15T21:03:00;3.67;;;1.83;;
75839;SDS011;64481;55.090;37.460;2022-11-15T21:08:06;3.25;;;1.30;;
75839;SDS011;64481;55.090;37.460;2022-11-15T21:13:07;4.05;;;1.73;;
75839;SDS011;64481;55.090;37.460;2022-11-15T21:18:09;3.47;;;1.75;;
75839;SDS011;64481;55.090;37.460;2022-11-15T21:23:10;3.50;;;1.55;;
75839;SDS011;64481;55.090;37.460;2022-11-15T21:28:11;3.28;;;1.52;;
75839;SDS011;64481;55.090;37.460;2022-11-15T21:33:12;3.05;;;1.52;;
75839;SDS011;64481;55.090;37.460;2022-11-15T21:38:13;4.05;;;1.55;;
75839;SDS011;64481;55.090;37.460;2022-11-15T21:43:15;4.47;;;1.70;;
75839;SDS011;64481;55.090;37.460;2022-11-15T21:48:16;3.97;;;1.60;;
75839;SDS011;64481;55.090;37.460;2022-11-15T21:53:18;4.30;;;2.13;;
75839;SDS011;64481;55.090;37.460;2022-11-15T21:58:20;3.22;;;1.70;;
75839;SDS011;64481;55.090;37.460;2022-11-15T22:03:21;3.90;;;1.60;;
75839;SDS011;64481;55.090;37.460;2022-11-15T22:08:22;3.30;;;2.10;;
75839;SDS011;64481;55.090;37.460;2022-11-15T22:13:24;3.10;;;1.65;;
75839;SDS011;64481;55.090;37.460;2022-11-15T22:18:25;2.78;;;1.60;;
75839;SDS011;64481;55.090;37.460;2022-11-15T22:23:27;2.92;;;1.52;;
75839;SDS011;64481;55.090;37.460;2022-11-15T22:28:29;4.40;;;2.17;;
75839;SDS011;64481;55.090;37.460;2022-11-15T22:33:31;5.53;;;1.73;;
